Monday, November 20, 2017, 1:54 AM GMT
Back to Local

CWPD, Parc Des Laurentid

Location: , , Canada Lat: 47.567
Local Time: 1:54 AM GMT ( 1:54 GMT) Lon: -71.233
Time Zone: GMT Elev: 2634 ft

Show me the last for .
Show Coded

Time T Td Feel RH Dir Speed Gust Alt SLP Vis Weather Sky Remarks
2017-11-20 01:00 17 15 12 90 320° 3 - - 29.24 0 None
2017-11-20 00:00 18 16 13 90 60° 3 - - 29.22 0 None
2017-11-19 23:00 19 17 11 88 20° 6 - - 29.19 0 None
2017-11-19 22:00 20 18 14 89 20° 5 - - 29.15 0 None
2017-11-19 21:00 21 19 12 91 30° 7 - - 29.12 0 1-hr Precip Total: 0.08"
2017-11-19 20:00 24 22 18 94 40° 5 - - 29.08 0 None
2017-11-19 19:00 29 27 22 94 360° 6 - - 29.02 0 None
2017-11-19 18:00 30 30 - 100 - Calm - - 28.99 0 None
2017-11-19 17:00 30 30 26 98 350° 3 - - 28.98 0 1-hr Precip Total: 0.04"
2017-11-19 16:00 29 29 26 100 20° 3 - - 29.01 0 1-hr Precip Total: 0.04"
2017-11-19 15:00 29 29 25 100 10° 3 - - 29.04 0 1-hr Precip Total: 0.08"
2017-11-19 14:00 29 29 25 100 340° 3 - - 29.08 0 1-hr Precip Total: 0.08"
2017-11-19 13:00 30 30 26 100 230° 3 - - 29.09 0 1-hr Precip Total: 0.04"
2017-11-19 12:00 28 28 - 100 190° 1 - - 29.13 0 None
2017-11-19 11:00 27 27 - 97 210° 1 - - 29.15 0 None
2017-11-19 10:00 26 25 22 96 200° 3 - - 29.17 0 None
2017-11-19 09:00 25 26 19 104 210° 5 - - 29.23 0 None
2017-11-19 08:00 24 21 - 90 220° 2 - - 29.26 0 Pressure falling rapidly
1-hr Precip Total: 0.04"
2017-11-19 06:00 24 17 19 76 190° 3 - - 29.36 0 None
2017-11-19 05:00 24 17 20 73 200° 3 - - 29.40 0 None
2017-11-19 04:00 25 19 - 75 - Calm - - 29.44 0 None
2017-11-19 03:00 25 16 20 67 180° 5 - - 29.50 0 None
2017-11-19 02:00 26 15 - 62 150° 2 - - 29.54 0 None

Support USWX by starting your Amazon purchase here.